sensor_id;sensor_type;location;lat;lon;timestamp;temperature;humidity
47658;DHT22;33958;48.404;10.598;2022-09-02T00:02:09;10.40;99.90
47658;DHT22;33958;48.404;10.598;2022-09-02T00:04:37;10.40;99.90
47658;DHT22;33958;48.404;10.598;2022-09-02T00:07:04;10.40;99.90
47658;DHT22;33958;48.404;10.598;2022-09-02T00:09:31;10.30;99.90
47658;DHT22;33958;48.404;10.598;2022-09-02T00:11:57;10.30;99.90
47658;DHT22;33958;48.404;10.598;2022-09-02T00:14:30;10.30;99.90
47658;DHT22;33958;48.404;10.598;2022-09-02T00:16:57;9.90;99.90
47658;DHT22;33958;48.404;10.598;2022-09-02T00:19:28;9.90;99.90
47658;DHT22;33958;48.404;10.598;2022-09-02T00:21:56;9.80;99.90
47658;DHT22;33958;48.404;10.598;2022-09-02T00:24:24;9.90;99.90
47658;DHT22;33958;48.404;10.598;2022-09-02T00:26:51;9.80;99.90
47658;DHT22;33958;48.404;10.598;2022-09-02T00:29:22;9.80;99.90
47658;DHT22;33958;48.404;10.598;2022-09-02T00:31:49;9.80;99.90
47658;DHT22;33958;48.404;10.598;2022-09-02T00:34:16;9.80;99.90
47658;DHT22;33958;48.404;10.598;2022-09-02T00:36:43;9.80;99.90
47658;DHT22;33958;48.404;10.598;2022-09-02T00:39:11;9.90;99.90
47658;DHT22;33958;48.404;10.598;2022-09-02T00:41:39;9.70;99.90
47658;DHT22;33958;48.404;10.598;2022-09-02T00:44:10;9.60;99.90
47658;DHT22;33958;48.404;10.598;2022-09-02T00:46:37;9.70;99.90
47658;DHT22;33958;48.404;10.598;2022-09-02T00:49:12;9.80;99.90
47658;DHT22;33958;48.404;10.598;2022-09-02T00:51:47;9.70;99.90
47658;DHT22;33958;48.404;10.598;2022-09-02T00:54:18;9.60;99.90
47658;DHT22;33958;48.404;10.598;2022-09-02T00:56:46;9.50;99.90
47658;DHT22;33958;48.404;10.598;2022-09-02T01:02:04;9.40;99.90
47658;DHT22;33958;48.404;10.598;2022-09-02T01:04:33;9.50;99.90
47658;DHT22;33958;48.404;10.598;2022-09-02T01:07:01;9.50;99.90
47658;DHT22;33958;48.404;10.598;2022-09-02T01:09:28;9.50;99.90
47658;DHT22;33958;48.404;10.598;2022-09-02T01:11:59;9.50;99.90
47658;DHT22;33958;48.404;10.598;2022-09-02T01:14:28;9.50;99.90
47658;DHT22;33958;48.404;10.598;2022-09-02T01:16:58;9.50;99.90
47658;DHT22;33958;48.404;10.598;2022-09-02T01:19:31;9.40;99.90
47658;DHT22;33958;48.404;10.598;2022-09-02T01:22:00;9.40;99.90
47658;DHT22;33958;48.404;10.598;2022-09-02T01:24:29;9.40;99.90
47658;DHT22;33958;48.404;10.598;2022-09-02T01:26:57;9.30;99.90
47658;DHT22;33958;48.404;10.598;2022-09-02T01:29:26;9.30;99.90
47658;DHT22;33958;48.404;10.598;2022-09-02T01:31:54;9.40;99.90
47658;DHT22;33958;48.404;10.598;2022-09-02T01:34:21;9.20;99.90
47658;DHT22;33958;48.404;10.598;2022-09-02T01:36:49;9.20;99.90
47658;DHT22;33958;48.404;10.598;2022-09-02T01:39:16;9.30;99.90
47658;DHT22;33958;48.404;10.598;2022-09-02T01:41:43;9.30;99.90
47658;DHT22;33958;48.404;10.598;2022-09-02T01:44:10;9.30;99.90
47658;DHT22;33958;48.404;10.598;2022-09-02T01:46:37;9.20;99.90
47658;DHT22;33958;48.404;10.598;2022-09-02T01:49:05;9.10;99.90
47658;DHT22;33958;48.404;10.598;2022-09-02T01:51:31;9.20;99.90
47658;DHT22;33958;48.404;10.598;2022-09-02T01:53:58;9.20;99.90
47658;DHT22;33958;48.404;10.598;2022-09-02T01:56:25;9.10;99.90
47658;DHT22;33958;48.404;10.598;2022-09-02T01:58:52;9.20;99.90
47658;DHT22;33958;48.404;10.598;2022-09-02T02:01:20;9.20;99.90
47658;DHT22;33958;48.404;10.598;2022-09-02T02:03:47;9.10;99.90
47658;DHT22;33958;48.404;10.598;2022-09-02T02:06:16;9.00;99.90
47658;DHT22;33958;48.404;10.598;2022-09-02T02:08:44;9.00;99.90
47658;DHT22;33958;48.404;10.598;2022-09-02T02:11:16;9.00;99.90
47658;DHT22;33958;48.404;10.598;2022-09-02T02:13:44;8.90;99.90
47658;DHT22;33958;48.404;10.598;2022-09-02T02:16:11;9.00;99.90
47658;DHT22;33958;48.404;10.598;2022-09-02T02:18:38;8.90;99.90
47658;DHT22;33958;48.404;10.598;2022-09-02T02:21:05;8.90;99.90
47658;DHT22;33958;48.404;10.598;2022-09-02T02:23:32;8.90;99.90
47658;DHT22;33958;48.404;10.598;2022-09-02T02:25:59;8.90;99.90
47658;DHT22;33958;48.404;10.598;2022-09-02T02:28:26;8.90;99.90
47658;DHT22;33958;48.404;10.598;2022-09-02T02:30:53;9.00;99.90
47658;DHT22;33958;48.404;10.598;2022-09-02T02:33:20;8.90;99.90
47658;DHT22;33958;48.404;10.598;2022-09-02T02:35:51;8.90;99.90
47658;DHT22;33958;48.404;10.598;2022-09-02T02:38:21;8.80;99.90
47658;DHT22;33958;48.404;10.598;2022-09-02T02:40:48;8.80;99.90
47658;DHT22;33958;48.404;10.598;2022-09-02T02:43:16;8.70;99.90
47658;DHT22;33958;48.404;10.598;2022-09-02T02:45:43;8.60;99.90
47658;DHT22;33958;48.404;10.598;2022-09-02T02:48:10;8.60;99.90
47658;DHT22;33958;48.404;10.598;2022-09-02T02:50:38;8.70;99.90
47658;DHT22;33958;48.404;10.598;2022-09-02T02:53:05;8.60;99.90
47658;DHT22;33958;48.404;10.598;2022-09-02T02:55:32;8.50;99.90
47658;DHT22;33958;48.404;10.598;2022-09-02T02:57:59;8.60;99.90
47658;DHT22;33958;48.404;10.598;2022-09-02T03:00:29;8.60;99.90
47658;DHT22;33958;48.404;10.598;2022-09-02T03:03:03;8.60;99.90
47658;DHT22;33958;48.404;10.598;2022-09-02T03:05:32;8.50;99.90
47658;DHT22;33958;48.404;10.598;2022-09-02T03:08:01;8.50;99.90
47658;DHT22;33958;48.404;10.598;2022-09-02T03:10:28;8.60;99.90
47658;DHT22;33958;48.404;10.598;2022-09-02T03:12:59;8.50;99.90
47658;DHT22;33958;48.404;10.598;2022-09-02T03:15:27;8.50;99.90
47658;DHT22;33958;48.404;10.598;2022-09-02T03:17:56;8.50;99.90
47658;DHT22;33958;48.404;10.598;2022-09-02T03:20:23;8.50;99.90
47658;DHT22;33958;48.404;10.598;2022-09-02T03:22:53;7.80;99.90
47658;DHT22;33958;48.404;10.598;2022-09-02T03:25:21;8.50;99.90
47658;DHT22;33958;48.404;10.598;2022-09-02T03:27:50;8.60;99.90
47658;DHT22;33958;48.404;10.598;2022-09-02T03:30:21;8.50;99.90
47658;DHT22;33958;48.404;10.598;2022-09-02T03:32:54;8.50;99.90
47658;DHT22;33958;48.404;10.598;2022-09-02T03:35:28;8.50;99.90
47658;DHT22;33958;48.404;10.598;2022-09-02T03:37:56;8.50;99.90
47658;DHT22;33958;48.404;10.598;2022-09-02T03:40:25;8.50;99.90
47658;DHT22;33958;48.404;10.598;2022-09-02T03:42:52;8.50;99.90
47658;DHT22;33958;48.404;10.598;2022-09-02T03:45:25;8.40;99.90
47658;DHT22;33958;48.404;10.598;2022-09-02T03:47:52;8.30;99.90
47658;DHT22;33958;48.404;10.598;2022-09-02T03:50:23;8.30;99.90
47658;DHT22;33958;48.404;10.598;2022-09-02T03:52:51;8.30;99.90
47658;DHT22;33958;48.404;10.598;2022-09-02T03:55:18;8.30;99.90
47658;DHT22;33958;48.404;10.598;2022-09-02T03:57:45;8.30;99.90
47658;DHT22;33958;48.404;10.598;2022-09-02T04:00:16;8.20;99.90
47658;DHT22;33958;48.404;10.598;2022-09-02T04:02:43;8.20;99.90
47658;DHT22;33958;48.404;10.598;2022-09-02T04:05:15;8.20;99.90
47658;DHT22;33958;48.404;10.598;2022-09-02T04:07:42;8.20;99.90
47658;DHT22;33958;48.404;10.598;2022-09-02T04:10:13;8.10;99.90
47658;DHT22;33958;48.404;10.598;2022-09-02T04:12:40;8.20;99.90
47658;DHT22;33958;48.404;10.598;2022-09-02T04:15:09;8.00;99.90
47658;DHT22;33958;48.404;10.598;2022-09-02T04:17:40;8.10;99.90
47658;DHT22;33958;48.404;10.598;2022-09-02T04:20:09;8.00;99.90
47658;DHT22;33958;48.404;10.598;2022-09-02T04:22:37;8.00;99.90
47658;DHT22;33958;48.404;10.598;2022-09-02T04:25:06;7.90;99.90
47658;DHT22;33958;48.404;10.598;2022-09-02T04:27:34;8.00;99.90
47658;DHT22;33958;48.404;10.598;2022-09-02T04:30:01;7.90;99.90
47658;DHT22;33958;48.404;10.598;2022-09-02T04:32:28;7.80;99.90
47658;DHT22;33958;48.404;10.598;2022-09-02T04:34:55;7.80;99.90
47658;DHT22;33958;48.404;10.598;2022-09-02T04:37:22;7.80;99.90
47658;DHT22;33958;48.404;10.598;2022-09-02T04:39:49;7.90;99.90
47658;DHT22;33958;48.404;10.598;2022-09-02T04:42:16;7.90;99.90
47658;DHT22;33958;48.404;10.598;2022-09-02T04:44:43;7.90;99.90
47658;DHT22;33958;48.404;10.598;2022-09-02T04:47:12;7.90;99.90
47658;DHT22;33958;48.404;10.598;2022-09-02T04:49:39;7.90;99.90
47658;DHT22;33958;48.404;10.598;2022-09-02T04:52:09;7.90;99.90
47658;DHT22;33958;48.404;10.598;2022-09-02T04:54:37;7.90;99.90
47658;DHT22;33958;48.404;10.598;2022-09-02T04:57:04;8.10;99.90
47658;DHT22;33958;48.404;10.598;2022-09-02T04:59:31;8.10;99.90
47658;DHT22;33958;48.404;10.598;2022-09-02T05:02:03;8.00;99.90
47658;DHT22;33958;48.404;10.598;2022-09-02T05:04:31;8.10;99.90
47658;DHT22;33958;48.404;10.598;2022-09-02T05:06:58;8.20;99.90
47658;DHT22;33958;48.404;10.598;2022-09-02T05:09:28;8.20;99.90
47658;DHT22;33958;48.404;10.598;2022-09-02T05:11:55;8.20;99.90
47658;DHT22;33958;48.404;10.598;2022-09-02T05:14:30;8.20;99.90
47658;DHT22;33958;48.404;10.598;2022-09-02T05:16:58;8.20;99.90
47658;DHT22;33958;48.404;10.598;2022-09-02T05:19:32;8.20;99.90
47658;DHT22;33958;48.404;10.598;2022-09-02T05:21:59;8.10;99.90
47658;DHT22;33958;48.404;10.598;2022-09-02T05:24:27;8.20;99.90
47658;DHT22;33958;48.404;10.598;2022-09-02T05:26:55;8.40;99.90
47658;DHT22;33958;48.404;10.598;2022-09-02T05:29:21;8.40;99.90
47658;DHT22;33958;48.404;10.598;2022-09-02T05:31:49;8.40;99.90
47658;DHT22;33958;48.404;10.598;2022-09-02T05:34:17;8.50;99.90
47658;DHT22;33958;48.404;10.598;2022-09-02T05:36:44;8.50;99.90
47658;DHT22;33958;48.404;10.598;2022-09-02T05:39:11;8.70;99.90
47658;DHT22;33958;48.404;10.598;2022-09-02T05:41:38;8.80;99.90
47658;DHT22;33958;48.404;10.598;2022-09-02T05:44:05;8.80;99.90
47658;DHT22;33958;48.404;10.598;2022-09-02T05:46:33;8.90;99.90
47658;DHT22;33958;48.404;10.598;2022-09-02T05:49:00;9.00;99.90
47658;DHT22;33958;48.404;10.598;2022-09-02T05:51:42;9.10;99.90
47658;DHT22;33958;48.404;10.598;2022-09-02T05:54:13;9.20;99.90
47658;DHT22;33958;48.404;10.598;2022-09-02T05:56:42;9.20;99.90
47658;DHT22;33958;48.404;10.598;2022-09-02T05:59:11;9.30;99.90
47658;DHT22;33958;48.404;10.598;2022-09-02T06:01:39;9.40;99.90
47658;DHT22;33958;48.404;10.598;2022-09-02T06:04:06;9.50;99.90
47658;DHT22;33958;48.404;10.598;2022-09-02T06:06:34;9.70;99.90
47658;DHT22;33958;48.404;10.598;2022-09-02T06:09:08;9.80;99.90
47658;DHT22;33958;48.404;10.598;2022-09-02T06:11:40;9.90;99.90
47658;DHT22;33958;48.404;10.598;2022-09-02T06:14:12;10.10;99.90
47658;DHT22;33958;48.404;10.598;2022-09-02T06:16:40;10.20;99.90
47658;DHT22;33958;48.404;10.598;2022-09-02T06:19:08;10.40;99.90
47658;DHT22;33958;48.404;10.598;2022-09-02T06:21:37;10.50;99.90
47658;DHT22;33958;48.404;10.598;2022-09-02T06:24:08;10.60;99.90
47658;DHT22;33958;48.404;10.598;2022-09-02T06:26:38;10.70;99.90
47658;DHT22;33958;48.404;10.598;2022-09-02T06:29:06;10.90;99.90
47658;DHT22;33958;48.404;10.598;2022-09-02T06:31:34;11.00;99.90
47658;DHT22;33958;48.404;10.598;2022-09-02T06:34:02;11.20;99.90
47658;DHT22;33958;48.404;10.598;2022-09-02T06:36:31;11.30;99.90
47658;DHT22;33958;48.404;10.598;2022-09-02T06:38:59;11.40;99.90
47658;DHT22;33958;48.404;10.598;2022-09-02T06:41:29;11.60;99.90
47658;DHT22;33958;48.404;10.598;2022-09-02T06:43:58;11.70;99.90
47658;DHT22;33958;48.404;10.598;2022-09-02T06:46:32;11.80;99.90
47658;DHT22;33958;48.404;10.598;2022-09-02T06:48:59;12.20;99.90
47658;DHT22;33958;48.404;10.598;2022-09-02T06:51:38;12.40;99.90
47658;DHT22;33958;48.404;10.598;2022-09-02T06:54:08;12.40;99.90
47658;DHT22;33958;48.404;10.598;2022-09-02T06:56:35;12.60;99.90
47658;DHT22;33958;48.404;10.598;2022-09-02T06:59:03;12.70;99.90
47658;DHT22;33958;48.404;10.598;2022-09-02T07:01:32;12.80;99.90
47658;DHT22;33958;48.404;10.598;2022-09-02T07:03:59;12.90;99.90
47658;DHT22;33958;48.404;10.598;2022-09-02T07:06:51;13.00;99.90
47658;DHT22;33958;48.404;10.598;2022-09-02T07:09:23;13.10;99.90
47658;DHT22;33958;48.404;10.598;2022-09-02T07:11:50;13.10;99.90
47658;DHT22;33958;48.404;10.598;2022-09-02T07:14:18;13.20;99.90
47658;DHT22;33958;48.404;10.598;2022-09-02T07:16:48;13.40;99.90
47658;DHT22;33958;48.404;10.598;2022-09-02T07:19:15;13.40;99.90
47658;DHT22;33958;48.404;10.598;2022-09-02T07:21:47;13.40;99.90
47658;DHT22;33958;48.404;10.598;2022-09-02T07:24:16;13.50;99.90
47658;DHT22;33958;48.404;10.598;2022-09-02T07:26:43;13.50;99.90
47658;DHT22;33958;48.404;10.598;2022-09-02T07:29:12;13.60;99.90
47658;DHT22;33958;48.404;10.598;2022-09-02T07:31:41;13.70;99.90
47658;DHT22;33958;48.404;10.598;2022-09-02T07:34:10;13.80;99.90
47658;DHT22;33958;48.404;10.598;2022-09-02T07:36:37;14.10;99.90
47658;DHT22;33958;48.404;10.598;2022-09-02T07:39:08;14.10;99.90
47658;DHT22;33958;48.404;10.598;2022-09-02T07:41:42;14.10;99.90
47658;DHT22;33958;48.404;10.598;2022-09-02T07:44:10;14.10;99.90
47658;DHT22;33958;48.404;10.598;2022-09-02T07:46:37;14.10;99.90
47658;DHT22;33958;48.404;10.598;2022-09-02T07:49:07;14.30;99.90
47658;DHT22;33958;48.404;10.598;2022-09-02T07:51:37;14.40;99.90
47658;DHT22;33958;48.404;10.598;2022-09-02T07:54:05;14.60;99.90
47658;DHT22;33958;48.404;10.598;2022-09-02T07:56:32;14.80;99.90
47658;DHT22;33958;48.404;10.598;2022-09-02T07:59:00;14.80;99.90
47658;DHT22;33958;48.404;10.598;2022-09-02T08:01:26;14.70;99.90
47658;DHT22;33958;48.404;10.598;2022-09-02T08:03:54;14.90;99.90
47658;DHT22;33958;48.404;10.598;2022-09-02T08:06:21;15.00;99.90
47658;DHT22;33958;48.404;10.598;2022-09-02T08:09:02;15.10;99.90
47658;DHT22;33958;48.404;10.598;2022-09-02T08:11:29;15.10;99.90
47658;DHT22;33958;48.404;10.598;2022-09-02T08:13:58;15.20;99.90
47658;DHT22;33958;48.404;10.598;2022-09-02T08:16:26;15.40;99.90
47658;DHT22;33958;48.404;10.598;2022-09-02T08:18:54;15.50;99.40
47658;DHT22;33958;48.404;10.598;2022-09-02T08:21:21;16.00;99.90
47658;DHT22;33958;48.404;10.598;2022-09-02T08:23:48;15.90;98.70
47658;DHT22;33958;48.404;10.598;2022-09-02T08:26:16;16.10;98.50
47658;DHT22;33958;48.404;10.598;2022-09-02T08:28:44;16.10;97.70
47658;DHT22;33958;48.404;10.598;2022-09-02T08:31:11;16.50;96.90
47658;DHT22;33958;48.404;10.598;2022-09-02T08:33:38;16.60;96.80
47658;DHT22;33958;48.404;10.598;2022-09-02T08:36:07;16.70;95.20
47658;DHT22;33958;48.404;10.598;2022-09-02T08:38:36;17.30;95.00
47658;DHT22;33958;48.404;10.598;2022-09-02T08:41:37;17.50;92.90
47658;DHT22;33958;48.404;10.598;2022-09-02T08:44:09;17.80;91.80
47658;DHT22;33958;48.404;10.598;2022-09-02T08:46:37;18.20;91.10
47658;DHT22;33958;48.404;10.598;2022-09-02T08:49:11;18.30;90.90
47658;DHT22;33958;48.404;10.598;2022-09-02T08:51:56;18.40;90.00
47658;DHT22;33958;48.404;10.598;2022-09-02T08:54:59;18.10;88.40
47658;DHT22;33958;48.404;10.598;2022-09-02T08:57:26;18.60;87.00
47658;DHT22;33958;48.404;10.598;2022-09-02T08:59:56;19.00;85.40
47658;DHT22;33958;48.404;10.598;2022-09-02T09:02:49;19.20;86.10
47658;DHT22;33958;48.404;10.598;2022-09-02T09:05:54;19.70;86.70
47658;DHT22;33958;48.404;10.598;2022-09-02T09:14:29;19.70;79.80
47658;DHT22;33958;48.404;10.598;2022-09-02T09:17:02;20.20;79.70
47658;DHT22;33958;48.404;10.598;2022-09-02T09:19:50;20.20;78.60
47658;DHT22;33958;48.404;10.598;2022-09-02T09:22:25;20.20;78.40
47658;DHT22;33958;48.404;10.598;2022-09-02T09:24:55;20.40;76.30
47658;DHT22;33958;48.404;10.598;2022-09-02T09:27:23;20.70;77.40
47658;DHT22;33958;48.404;10.598;2022-09-02T09:29:51;21.10;74.70
47658;DHT22;33958;48.404;10.598;2022-09-02T09:32:29;20.90;73.40
47658;DHT22;33958;48.404;10.598;2022-09-02T09:37:42;21.20;72.70
47658;DHT22;33958;48.404;10.598;2022-09-02T09:42:57;21.40;71.80
47658;DHT22;33958;48.404;10.598;2022-09-02T09:45:28;21.60;71.80
47658;DHT22;33958;48.404;10.598;2022-09-02T09:50:47;21.20;70.40
47658;DHT22;33958;48.404;10.598;2022-09-02T09:53:19;21.40;68.90
47658;DHT22;33958;48.404;10.598;2022-09-02T09:56:01;21.30;68.00
47658;DHT22;33958;48.404;10.598;2022-09-02T10:03:42;22.10;68.30
47658;DHT22;33958;48.404;10.598;2022-09-02T10:06:37;21.60;68.10
47658;DHT22;33958;48.404;10.598;2022-09-02T10:23:02;22.40;65.00
47658;DHT22;33958;48.404;10.598;2022-09-02T10:37:25;22.10;65.20
47658;DHT22;33958;48.404;10.598;2022-09-02T10:40:08;22.30;63.40
47658;DHT22;33958;48.404;10.598;2022-09-02T10:45:46;22.60;65.40
47658;DHT22;33958;48.404;10.598;2022-09-02T10:56:22;24.20;61.80
47658;DHT22;33958;48.404;10.598;2022-09-02T10:59:20;23.30;62.60
47658;DHT22;33958;48.404;10.598;2022-09-02T11:02:00;22.40;63.10
47658;DHT22;33958;48.404;10.598;2022-09-02T11:04:36;22.40;63.00
47658;DHT22;33958;48.404;10.598;2022-09-02T11:07:08;23.30;62.80
47658;DHT22;33958;48.404;10.598;2022-09-02T11:09:49;23.20;61.80
47658;DHT22;33958;48.404;10.598;2022-09-02T11:12:37;23.20;61.90
47658;DHT22;33958;48.404;10.598;2022-09-02T11:20:40;23.20;61.40
47658;DHT22;33958;48.404;10.598;2022-09-02T11:23:22;23.20;61.80
47658;DHT22;33958;48.404;10.598;2022-09-02T11:25:59;23.50;59.80
47658;DHT22;33958;48.404;10.598;2022-09-02T11:28:35;23.50;62.30
47658;DHT22;33958;48.404;10.598;2022-09-02T11:33:50;23.30;59.70
47658;DHT22;33958;48.404;10.598;2022-09-02T11:36:18;23.60;58.70
47658;DHT22;33958;48.404;10.598;2022-09-02T11:38:57;23.30;59.30
47658;DHT22;33958;48.404;10.598;2022-09-02T11:46:56;23.70;59.30
47658;DHT22;33958;48.404;10.598;2022-09-02T11:49:43;24.10;58.30
47658;DHT22;33958;48.404;10.598;2022-09-02T11:52:20;23.90;58.40
47658;DHT22;33958;48.404;10.598;2022-09-02T11:55:03;23.70;58.60
47658;DHT22;33958;48.404;10.598;2022-09-02T11:57:32;23.70;60.80
47658;DHT22;33958;48.404;10.598;2022-09-02T12:00:00;23.60;59.80
47658;DHT22;33958;48.404;10.598;2022-09-02T12:02:53;24.30;60.40
47658;DHT22;33958;48.404;10.598;2022-09-02T12:08:03;23.90;60.00
47658;DHT22;33958;48.404;10.598;2022-09-02T12:13:10;24.30;58.80
47658;DHT22;33958;48.404;10.598;2022-09-02T12:15:38;24.20;57.40
47658;DHT22;33958;48.404;10.598;2022-09-02T12:18:28;23.70;60.70
47658;DHT22;33958;48.404;10.598;2022-09-02T12:26:15;24.20;59.10
47658;DHT22;33958;48.404;10.598;2022-09-02T12:28:45;24.20;57.50
47658;DHT22;33958;48.404;10.598;2022-09-02T12:33:48;23.90;57.90
47658;DHT22;33958;48.404;10.598;2022-09-02T12:45:08;24.40;57.00
47658;DHT22;33958;48.404;10.598;2022-09-02T12:50:50;24.50;57.80
47658;DHT22;33958;48.404;10.598;2022-09-02T12:53:41;23.70;59.10
47658;DHT22;33958;48.404;10.598;2022-09-02T12:58:52;24.00;58.30
47658;DHT22;33958;48.404;10.598;2022-09-02T13:01:39;24.60;58.30
47658;DHT22;33958;48.404;10.598;2022-09-02T13:12:49;24.50;58.30
47658;DHT22;33958;48.404;10.598;2022-09-02T13:19:06;24.20;57.50
47658;DHT22;33958;48.404;10.598;2022-09-02T13:33:08;24.90;59.50
47658;DHT22;33958;48.404;10.598;2022-09-02T13:35:38;24.90;56.80
47658;DHT22;33958;48.404;10.598;2022-09-02T13:38:12;25.50;56.60
47658;DHT22;33958;48.404;10.598;2022-09-02T13:40:44;25.10;57.10
47658;DHT22;33958;48.404;10.598;2022-09-02T13:45:40;25.40;56.60
47658;DHT22;33958;48.404;10.598;2022-09-02T13:48:10;25.30;55.50
47658;DHT22;33958;48.404;10.598;2022-09-02T13:50:45;25.50;56.10
47658;DHT22;33958;48.404;10.598;2022-09-02T13:53:27;25.50;58.60
47658;DHT22;33958;48.404;10.598;2022-09-02T13:56:23;25.30;56.30
47658;DHT22;33958;48.404;10.598;2022-09-02T13:58:52;24.80;56.00
47658;DHT22;33958;48.404;10.598;2022-09-02T14:01:42;25.00;56.50
47658;DHT22;33958;48.404;10.598;2022-09-02T14:04:12;24.20;56.10
47658;DHT22;33958;48.404;10.598;2022-09-02T14:06:44;24.00;57.30
47658;DHT22;33958;48.404;10.598;2022-09-02T14:09:37;24.30;56.50
47658;DHT22;33958;48.404;10.598;2022-09-02T14:12:06;24.70;57.00
47658;DHT22;33958;48.404;10.598;2022-09-02T14:14:33;24.90;56.50
47658;DHT22;33958;48.404;10.598;2022-09-02T14:17:22;24.90;57.20
47658;DHT22;33958;48.404;10.598;2022-09-02T14:19:50;24.80;56.90
47658;DHT22;33958;48.404;10.598;2022-09-02T14:22:27;24.70;56.90
47658;DHT22;33958;48.404;10.598;2022-09-02T14:24:55;24.30;57.30
47658;DHT22;33958;48.404;10.598;2022-09-02T14:27:22;24.50;56.90
47658;DHT22;33958;48.404;10.598;2022-09-02T14:29:54;24.60;57.20
47658;DHT22;33958;48.404;10.598;2022-09-02T14:32:27;24.50;57.00
47658;DHT22;33958;48.404;10.598;2022-09-02T14:37:53;24.00;57.90
47658;DHT22;33958;48.404;10.598;2022-09-02T14:40:36;24.50;58.50
47658;DHT22;33958;48.404;10.598;2022-09-02T14:43:03;24.20;58.30
47658;DHT22;33958;48.404;10.598;2022-09-02T14:45:37;24.30;56.80
47658;DHT22;33958;48.404;10.598;2022-09-02T14:48:21;24.00;57.70
47658;DHT22;33958;48.404;10.598;2022-09-02T14:50:55;24.70;57.70
47658;DHT22;33958;48.404;10.598;2022-09-02T14:53:28;25.10;59.70
47658;DHT22;33958;48.404;10.598;2022-09-02T14:55:56;24.70;57.60
47658;DHT22;33958;48.404;10.598;2022-09-02T14:58:25;24.40;57.60
47658;DHT22;33958;48.404;10.598;2022-09-02T15:00:58;24.10;57.50
47658;DHT22;33958;48.404;10.598;2022-09-02T15:03:27;24.10;58.00
47658;DHT22;33958;48.404;10.598;2022-09-02T15:05:54;24.20;57.70
47658;DHT22;33958;48.404;10.598;2022-09-02T15:08:22;24.20;58.10
47658;DHT22;33958;48.404;10.598;2022-09-02T15:10:50;24.30;57.40
47658;DHT22;33958;48.404;10.598;2022-09-02T15:13:28;24.30;57.00
47658;DHT22;33958;48.404;10.598;2022-09-02T15:15:58;24.20;58.30
47658;DHT22;33958;48.404;10.598;2022-09-02T15:18:25;24.30;58.40
47658;DHT22;33958;48.404;10.598;2022-09-02T15:20:53;24.20;58.20
47658;DHT22;33958;48.404;10.598;2022-09-02T15:23:20;24.20;58.60
47658;DHT22;33958;48.404;10.598;2022-09-02T15:25:47;24.10;57.90
47658;DHT22;33958;48.404;10.598;2022-09-02T15:28:14;24.20;58.10
47658;DHT22;33958;48.404;10.598;2022-09-02T15:30:41;24.20;57.60
47658;DHT22;33958;48.404;10.598;2022-09-02T15:33:08;24.20;58.30
47658;DHT22;33958;48.404;10.598;2022-09-02T15:35:42;24.40;57.10
47658;DHT22;33958;48.404;10.598;2022-09-02T15:38:09;24.40;57.50
47658;DHT22;33958;48.404;10.598;2022-09-02T15:40:36;24.80;57.50
47658;DHT22;33958;48.404;10.598;2022-09-02T15:43:03;24.90;57.70
47658;DHT22;33958;48.404;10.598;2022-09-02T15:45:30;24.90;57.60
47658;DHT22;33958;48.404;10.598;2022-09-02T15:47:57;24.70;57.80
47658;DHT22;33958;48.404;10.598;2022-09-02T15:50:25;24.40;57.80
47658;DHT22;33958;48.404;10.598;2022-09-02T15:52:53;25.00;57.10
47658;DHT22;33958;48.404;10.598;2022-09-02T15:55:21;24.80;56.60
47658;DHT22;33958;48.404;10.598;2022-09-02T15:57:55;25.10;57.60
47658;DHT22;33958;48.404;10.598;2022-09-02T16:00:22;24.50;56.80
47658;DHT22;33958;48.404;10.598;2022-09-02T16:02:54;24.20;59.30
47658;DHT22;33958;48.404;10.598;2022-09-02T16:05:22;24.90;58.70
47658;DHT22;33958;48.404;10.598;2022-09-02T16:07:50;24.50;58.00
47658;DHT22;33958;48.404;10.598;2022-09-02T16:10:20;24.80;57.50
47658;DHT22;33958;48.404;10.598;2022-09-02T16:12:47;24.50;57.40
47658;DHT22;33958;48.404;10.598;2022-09-02T16:15:14;25.80;57.30
47658;DHT22;33958;48.404;10.598;2022-09-02T16:17:41;26.50;58.80
47658;DHT22;33958;48.404;10.598;2022-09-02T16:20:09;26.10;56.30
47658;DHT22;33958;48.404;10.598;2022-09-02T16:22:36;25.80;56.00
47658;DHT22;33958;48.404;10.598;2022-09-02T16:25:03;26.50;55.80
47658;DHT22;33958;48.404;10.598;2022-09-02T16:27:30;25.40;55.50
47658;DHT22;33958;48.404;10.598;2022-09-02T16:30:15;23.90;57.90
47658;DHT22;33958;48.404;10.598;2022-09-02T16:32:43;25.50;58.60
47658;DHT22;33958;48.404;10.598;2022-09-02T16:35:09;26.10;56.50
47658;DHT22;33958;48.404;10.598;2022-09-02T16:37:36;27.00;55.20
47658;DHT22;33958;48.404;10.598;2022-09-02T16:40:04;26.90;55.20
47658;DHT22;33958;48.404;10.598;2022-09-02T16:42:31;26.10;55.70
47658;DHT22;33958;48.404;10.598;2022-09-02T16:45:03;26.30;55.00
47658;DHT22;33958;48.404;10.598;2022-09-02T16:47:31;25.70;57.40
47658;DHT22;33958;48.404;10.598;2022-09-02T16:49:58;25.10;57.50
47658;DHT22;33958;48.404;10.598;2022-09-02T16:52:25;25.00;58.80
47658;DHT22;33958;48.404;10.598;2022-09-02T16:54:51;24.10;59.10
47658;DHT22;33958;48.404;10.598;2022-09-02T16:57:18;23.20;60.70
47658;DHT22;33958;48.404;10.598;2022-09-02T16:59:45;23.80;61.20
47658;DHT22;33958;48.404;10.598;2022-09-02T17:02:12;23.20;62.10
47658;DHT22;33958;48.404;10.598;2022-09-02T17:04:39;23.50;61.80
47658;DHT22;33958;48.404;10.598;2022-09-02T17:07:06;23.90;60.30
47658;DHT22;33958;48.404;10.598;2022-09-02T17:09:33;23.60;60.80
47658;DHT22;33958;48.404;10.598;2022-09-02T17:12:00;23.70;61.80
47658;DHT22;33958;48.404;10.598;2022-09-02T17:14:27;23.40;61.10
47658;DHT22;33958;48.404;10.598;2022-09-02T17:16:54;23.10;61.60
47658;DHT22;33958;48.404;10.598;2022-09-02T17:19:21;22.70;62.60
47658;DHT22;33958;48.404;10.598;2022-09-02T17:21:55;22.80;62.40
47658;DHT22;33958;48.404;10.598;2022-09-02T17:24:24;22.80;62.90
47658;DHT22;33958;48.404;10.598;2022-09-02T17:26:53;22.30;63.70
47658;DHT22;33958;48.404;10.598;2022-09-02T17:29:23;22.10;65.40
47658;DHT22;33958;48.404;10.598;2022-09-02T17:32:10;21.60;66.20
47658;DHT22;33958;48.404;10.598;2022-09-02T17:34:37;20.90;68.30
47658;DHT22;33958;48.404;10.598;2022-09-02T17:37:04;20.20;70.40
47658;DHT22;33958;48.404;10.598;2022-09-02T17:39:31;19.90;72.30
47658;DHT22;33958;48.404;10.598;2022-09-02T17:42:03;19.40;74.90
47658;DHT22;33958;48.404;10.598;2022-09-02T17:44:34;19.30;75.50
47658;DHT22;33958;48.404;10.598;2022-09-02T17:47:04;19.10;76.00
47658;DHT22;33958;48.404;10.598;2022-09-02T17:49:36;18.90;76.30
47658;DHT22;33958;48.404;10.598;2022-09-02T17:52:05;18.70;77.50
47658;DHT22;33958;48.404;10.598;2022-09-02T17:54:37;18.60;79.00